sensor_id;sensor_type;location;lat;lon;timestamp;temperature;humidity
23827;DHT22;12094;50.822;4.376;2023-03-01T00:01:42;3.20;99.90
23827;DHT22;12094;50.822;4.376;2023-03-01T00:04:09;3.10;99.90
23827;DHT22;12094;50.822;4.376;2023-03-01T00:06:42;3.00;99.90
23827;DHT22;12094;50.822;4.376;2023-03-01T00:09:14;3.10;99.90
23827;DHT22;12094;50.822;4.376;2023-03-01T00:11:41;3.10;99.90
23827;DHT22;12094;50.822;4.376;2023-03-01T00:14:11;3.10;99.90
23827;DHT22;12094;50.822;4.376;2023-03-01T00:16:40;3.10;99.90
23827;DHT22;12094;50.822;4.376;2023-03-01T00:19:19;3.10;99.90
23827;DHT22;12094;50.822;4.376;2023-03-01T00:21:48;3.00;99.90
23827;DHT22;12094;50.822;4.376;2023-03-01T00:24:17;3.00;99.90
23827;DHT22;12094;50.822;4.376;2023-03-01T00:26:44;2.90;99.90
23827;DHT22;12094;50.822;4.376;2023-03-01T00:29:11;2.80;99.90
23827;DHT22;12094;50.822;4.376;2023-03-01T00:31:42;2.80;99.90
23827;DHT22;12094;50.822;4.376;2023-03-01T00:34:10;2.90;99.90
23827;DHT22;12094;50.822;4.376;2023-03-01T00:36:40;2.80;99.90
23827;DHT22;12094;50.822;4.376;2023-03-01T00:39:13;2.90;99.90
23827;DHT22;12094;50.822;4.376;2023-03-01T00:41:41;2.90;99.90
23827;DHT22;12094;50.822;4.376;2023-03-01T00:44:10;2.80;99.90
23827;DHT22;12094;50.822;4.376;2023-03-01T00:46:44;2.70;99.90
23827;DHT22;12094;50.822;4.376;2023-03-01T00:49:14;2.70;99.90
23827;DHT22;12094;50.822;4.376;2023-03-01T00:51:43;2.70;99.90
23827;DHT22;12094;50.822;4.376;2023-03-01T00:54:12;2.70;99.90
23827;DHT22;12094;50.822;4.376;2023-03-01T00:56:40;2.60;99.90
23827;DHT22;12094;50.822;4.376;2023-03-01T00:59:08;2.70;99.90
23827;DHT22;12094;50.822;4.376;2023-03-01T01:01:35;2.70;99.90
23827;DHT22;12094;50.822;4.376;2023-03-01T01:04:05;2.60;99.90
23827;DHT22;12094;50.822;4.376;2023-03-01T01:06:35;2.60;99.90
23827;DHT22;12094;50.822;4.376;2023-03-01T01:09:05;2.60;99.90
23827;DHT22;12094;50.822;4.376;2023-03-01T01:11:34;2.50;99.90
23827;DHT22;12094;50.822;4.376;2023-03-01T01:14:05;2.50;99.90
23827;DHT22;12094;50.822;4.376;2023-03-01T01:16:33;2.50;99.90
23827;DHT22;12094;50.822;4.376;2023-03-01T01:19:03;2.70;99.90
23827;DHT22;12094;50.822;4.376;2023-03-01T01:21:31;2.60;99.90
23827;DHT22;12094;50.822;4.376;2023-03-01T01:23:59;2.60;99.90
23827;DHT22;12094;50.822;4.376;2023-03-01T01:26:28;2.60;99.90
23827;DHT22;12094;50.822;4.376;2023-03-01T01:28:58;2.60;99.90
23827;DHT22;12094;50.822;4.376;2023-03-01T01:31:27;2.50;99.90
23827;DHT22;12094;50.822;4.376;2023-03-01T01:33:58;2.50;99.90
23827;DHT22;12094;50.822;4.376;2023-03-01T01:36:26;2.40;99.90
23827;DHT22;12094;50.822;4.376;2023-03-01T01:38:56;2.40;99.90
23827;DHT22;12094;50.822;4.376;2023-03-01T01:41:28;2.40;99.90
23827;DHT22;12094;50.822;4.376;2023-03-01T01:44:11;2.40;99.90
23827;DHT22;12094;50.822;4.376;2023-03-01T01:47:06;2.40;99.90
23827;DHT22;12094;50.822;4.376;2023-03-01T01:49:46;2.40;99.90
23827;DHT22;12094;50.822;4.376;2023-03-01T01:52:25;2.30;99.90
23827;DHT22;12094;50.822;4.376;2023-03-01T01:55:03;2.30;99.90
23827;DHT22;12094;50.822;4.376;2023-03-01T01:57:41;2.20;99.90
23827;DHT22;12094;50.822;4.376;2023-03-01T02:00:14;2.20;99.90
23827;DHT22;12094;50.822;4.376;2023-03-01T02:02:44;2.20;99.90
23827;DHT22;12094;50.822;4.376;2023-03-01T02:07:59;2.20;99.90
23827;DHT22;12094;50.822;4.376;2023-03-01T02:10:32;2.20;99.90
23827;DHT22;12094;50.822;4.376;2023-03-01T02:13:00;2.20;99.90
23827;DHT22;12094;50.822;4.376;2023-03-01T02:15:32;2.20;99.90
23827;DHT22;12094;50.822;4.376;2023-03-01T02:18:01;2.20;99.90
23827;DHT22;12094;50.822;4.376;2023-03-01T02:23:32;2.10;99.90
23827;DHT22;12094;50.822;4.376;2023-03-01T02:26:16;2.10;99.90
23827;DHT22;12094;50.822;4.376;2023-03-01T02:28:45;2.00;99.90
23827;DHT22;12094;50.822;4.376;2023-03-01T02:31:18;2.10;99.90
23827;DHT22;12094;50.822;4.376;2023-03-01T02:34:06;2.10;99.90
23827;DHT22;12094;50.822;4.376;2023-03-01T02:36:40;2.00;99.90
23827;DHT22;12094;50.822;4.376;2023-03-01T02:39:12;1.90;99.90
23827;DHT22;12094;50.822;4.376;2023-03-01T02:41:51;2.00;99.90
23827;DHT22;12094;50.822;4.376;2023-03-01T02:44:20;2.00;99.90
23827;DHT22;12094;50.822;4.376;2023-03-01T02:46:52;2.00;99.90
23827;DHT22;12094;50.822;4.376;2023-03-01T02:49:29;2.00;99.90
23827;DHT22;12094;50.822;4.376;2023-03-01T02:55:13;2.00;99.90
23827;DHT22;12094;50.822;4.376;2023-03-01T02:57:44;1.90;99.90
23827;DHT22;12094;50.822;4.376;2023-03-01T03:00:21;1.80;99.90
23827;DHT22;12094;50.822;4.376;2023-03-01T03:02:53;1.80;99.90
23827;DHT22;12094;50.822;4.376;2023-03-01T03:05:29;1.80;99.90
23827;DHT22;12094;50.822;4.376;2023-03-01T03:07:59;1.80;99.90
23827;DHT22;12094;50.822;4.376;2023-03-01T03:10:31;1.80;99.90
23827;DHT22;12094;50.822;4.376;2023-03-01T03:13:08;1.80;99.90
23827;DHT22;12094;50.822;4.376;2023-03-01T03:15:39;1.70;99.90
23827;DHT22;12094;50.822;4.376;2023-03-01T03:18:12;1.70;99.90
23827;DHT22;12094;50.822;4.376;2023-03-01T03:20:40;1.80;99.90
23827;DHT22;12094;50.822;4.376;2023-03-01T03:23:09;1.80;99.90
23827;DHT22;12094;50.822;4.376;2023-03-01T03:25:36;1.80;99.90
23827;DHT22;12094;50.822;4.376;2023-03-01T03:28:05;1.70;99.90
23827;DHT22;12094;50.822;4.376;2023-03-01T03:30:41;1.70;99.90
23827;DHT22;12094;50.822;4.376;2023-03-01T03:33:10;1.80;99.90
23827;DHT22;12094;50.822;4.376;2023-03-01T03:35:42;1.70;99.90
23827;DHT22;12094;50.822;4.376;2023-03-01T03:38:11;1.70;99.90
23827;DHT22;12094;50.822;4.376;2023-03-01T03:40:51;1.60;99.90
23827;DHT22;12094;50.822;4.376;2023-03-01T03:43:21;1.60;99.90
23827;DHT22;12094;50.822;4.376;2023-03-01T03:45:51;1.70;99.90
23827;DHT22;12094;50.822;4.376;2023-03-01T03:48:18;1.70;99.90
23827;DHT22;12094;50.822;4.376;2023-03-01T03:50:52;1.70;99.90
23827;DHT22;12094;50.822;4.376;2023-03-01T03:53:22;1.70;99.90
23827;DHT22;12094;50.822;4.376;2023-03-01T03:55:51;1.60;99.90
23827;DHT22;12094;50.822;4.376;2023-03-01T03:58:20;1.60;99.90
23827;DHT22;12094;50.822;4.376;2023-03-01T04:00:53;1.60;99.90
23827;DHT22;12094;50.822;4.376;2023-03-01T04:03:24;1.60;99.90
23827;DHT22;12094;50.822;4.376;2023-03-01T04:05:53;1.50;99.90
23827;DHT22;12094;50.822;4.376;2023-03-01T04:08:23;1.50;99.90
23827;DHT22;12094;50.822;4.376;2023-03-01T04:10:52;1.40;99.90
23827;DHT22;12094;50.822;4.376;2023-03-01T04:13:22;1.40;99.90
23827;DHT22;12094;50.822;4.376;2023-03-01T04:15:52;1.40;99.90
23827;DHT22;12094;50.822;4.376;2023-03-01T04:18:21;1.40;99.90
23827;DHT22;12094;50.822;4.376;2023-03-01T04:20:51;1.40;99.90
23827;DHT22;12094;50.822;4.376;2023-03-01T04:23:20;1.40;99.90
23827;DHT22;12094;50.822;4.376;2023-03-01T04:25:56;1.50;99.90
23827;DHT22;12094;50.822;4.376;2023-03-01T04:28:42;1.40;99.90
23827;DHT22;12094;50.822;4.376;2023-03-01T04:31:15;1.40;99.90
23827;DHT22;12094;50.822;4.376;2023-03-01T04:33:53;1.40;99.90
23827;DHT22;12094;50.822;4.376;2023-03-01T04:36:24;1.40;99.90
23827;DHT22;12094;50.822;4.376;2023-03-01T04:38:53;1.40;99.90
23827;DHT22;12094;50.822;4.376;2023-03-01T04:41:23;1.20;99.90
23827;DHT22;12094;50.822;4.376;2023-03-01T04:43:53;1.20;99.90
23827;DHT22;12094;50.822;4.376;2023-03-01T04:46:21;1.20;99.90
23827;DHT22;12094;50.822;4.376;2023-03-01T04:48:55;1.20;99.90
23827;DHT22;12094;50.822;4.376;2023-03-01T04:51:22;1.10;99.90
23827;DHT22;12094;50.822;4.376;2023-03-01T04:53:51;1.10;99.90
23827;DHT22;12094;50.822;4.376;2023-03-01T04:56:21;1.10;99.90
23827;DHT22;12094;50.822;4.376;2023-03-01T04:58:53;1.10;99.90
23827;DHT22;12094;50.822;4.376;2023-03-01T05:01:21;1.10;99.90
23827;DHT22;12094;50.822;4.376;2023-03-01T05:03:52;1.10;99.90
23827;DHT22;12094;50.822;4.376;2023-03-01T05:06:20;1.20;99.90
23827;DHT22;12094;50.822;4.376;2023-03-01T05:08:47;1.10;99.90
23827;DHT22;12094;50.822;4.376;2023-03-01T05:11:14;1.20;99.90
23827;DHT22;12094;50.822;4.376;2023-03-01T05:13:41;1.20;99.90
23827;DHT22;12094;50.822;4.376;2023-03-01T05:16:09;1.10;99.90
23827;DHT22;12094;50.822;4.376;2023-03-01T05:18:47;1.00;99.90
23827;DHT22;12094;50.822;4.376;2023-03-01T05:21:17;1.00;99.90
23827;DHT22;12094;50.822;4.376;2023-03-01T05:23:45;0.90;99.90
23827;DHT22;12094;50.822;4.376;2023-03-01T05:26:15;1.00;99.90
23827;DHT22;12094;50.822;4.376;2023-03-01T05:29:01;1.00;99.90
23827;DHT22;12094;50.822;4.376;2023-03-01T05:31:29;0.90;99.90
23827;DHT22;12094;50.822;4.376;2023-03-01T05:33:58;1.00;99.90
23827;DHT22;12094;50.822;4.376;2023-03-01T05:36:26;1.00;99.90
23827;DHT22;12094;50.822;4.376;2023-03-01T05:38:54;0.90;99.90
23827;DHT22;12094;50.822;4.376;2023-03-01T05:41:23;0.80;99.90
23827;DHT22;12094;50.822;4.376;2023-03-01T05:43:51;0.90;99.90
23827;DHT22;12094;50.822;4.376;2023-03-01T05:46:20;0.90;99.90
23827;DHT22;12094;50.822;4.376;2023-03-01T05:48:47;0.90;99.90
23827;DHT22;12094;50.822;4.376;2023-03-01T05:51:15;1.00;99.90
23827;DHT22;12094;50.822;4.376;2023-03-01T05:53:42;0.90;99.90
23827;DHT22;12094;50.822;4.376;2023-03-01T05:56:09;0.90;99.90
23827;DHT22;12094;50.822;4.376;2023-03-01T05:58:38;0.80;99.90
23827;DHT22;12094;50.822;4.376;2023-03-01T06:01:13;0.70;99.90
23827;DHT22;12094;50.822;4.376;2023-03-01T06:03:42;0.70;99.90
23827;DHT22;12094;50.822;4.376;2023-03-01T06:06:09;0.80;99.90
23827;DHT22;12094;50.822;4.376;2023-03-01T06:08:36;0.90;99.90
23827;DHT22;12094;50.822;4.376;2023-03-01T06:11:06;1.00;99.90
23827;DHT22;12094;50.822;4.376;2023-03-01T06:13:37;1.10;99.90
23827;DHT22;12094;50.822;4.376;2023-03-01T06:16:13;1.10;99.90
23827;DHT22;12094;50.822;4.376;2023-03-01T06:18:44;1.00;99.90
23827;DHT22;12094;50.822;4.376;2023-03-01T06:21:12;0.90;99.90
23827;DHT22;12094;50.822;4.376;2023-03-01T06:23:41;0.80;99.90
23827;DHT22;12094;50.822;4.376;2023-03-01T06:26:09;0.90;99.90
23827;DHT22;12094;50.822;4.376;2023-03-01T06:28:36;1.00;99.90
23827;DHT22;12094;50.822;4.376;2023-03-01T06:31:04;0.90;99.90
23827;DHT22;12094;50.822;4.376;2023-03-01T06:33:32;0.80;99.90
23827;DHT22;12094;50.822;4.376;2023-03-01T06:35:59;0.70;99.90
23827;DHT22;12094;50.822;4.376;2023-03-01T06:38:26;0.70;99.90
23827;DHT22;12094;50.822;4.376;2023-03-01T06:40:54;0.80;99.90
23827;DHT22;12094;50.822;4.376;2023-03-01T06:43:22;0.80;99.90
23827;DHT22;12094;50.822;4.376;2023-03-01T06:45:52;0.90;99.90
23827;DHT22;12094;50.822;4.376;2023-03-01T06:48:19;0.90;99.90
23827;DHT22;12094;50.822;4.376;2023-03-01T06:50:47;0.90;99.90
23827;DHT22;12094;50.822;4.376;2023-03-01T06:53:17;0.80;99.90
23827;DHT22;12094;50.822;4.376;2023-03-01T06:55:46;0.80;99.90
23827;DHT22;12094;50.822;4.376;2023-03-01T06:58:14;0.90;99.90
23827;DHT22;12094;50.822;4.376;2023-03-01T07:00:41;0.70;99.90
23827;DHT22;12094;50.822;4.376;2023-03-01T07:03:09;0.80;99.90
23827;DHT22;12094;50.822;4.376;2023-03-01T07:05:38;0.90;99.90
23827;DHT22;12094;50.822;4.376;2023-03-01T07:08:06;0.90;99.90
23827;DHT22;12094;50.822;4.376;2023-03-01T07:18:01;0.90;99.90
23827;DHT22;12094;50.822;4.376;2023-03-01T07:20:44;0.90;99.90
23827;DHT22;12094;50.822;4.376;2023-03-01T07:23:29;0.90;99.90
23827;DHT22;12094;50.822;4.376;2023-03-01T07:25:59;1.00;99.90
23827;DHT22;12094;50.822;4.376;2023-03-01T07:28:28;1.00;99.90
23827;DHT22;12094;50.822;4.376;2023-03-01T07:31:03;1.10;99.90
23827;DHT22;12094;50.822;4.376;2023-03-01T07:33:32;1.10;99.90
23827;DHT22;12094;50.822;4.376;2023-03-01T07:36:04;1.00;99.90
23827;DHT22;12094;50.822;4.376;2023-03-01T07:38:33;1.10;99.90
23827;DHT22;12094;50.822;4.376;2023-03-01T07:41:03;1.10;99.90
23827;DHT22;12094;50.822;4.376;2023-03-01T07:43:47;1.00;99.90
23827;DHT22;12094;50.822;4.376;2023-03-01T07:46:22;1.10;99.90
23827;DHT22;12094;50.822;4.376;2023-03-01T07:48:51;1.20;99.90
23827;DHT22;12094;50.822;4.376;2023-03-01T07:51:19;1.30;99.90
23827;DHT22;12094;50.822;4.376;2023-03-01T07:53:49;1.30;99.90
23827;DHT22;12094;50.822;4.376;2023-03-01T07:56:17;1.50;99.90
23827;DHT22;12094;50.822;4.376;2023-03-01T07:58:46;1.50;99.90
23827;DHT22;12094;50.822;4.376;2023-03-01T08:01:18;1.50;99.90
23827;DHT22;12094;50.822;4.376;2023-03-01T08:03:51;1.50;99.90
23827;DHT22;12094;50.822;4.376;2023-03-01T08:06:18;1.60;99.90
23827;DHT22;12094;50.822;4.376;2023-03-01T08:08:45;1.60;99.90
23827;DHT22;12094;50.822;4.376;2023-03-01T08:11:14;1.70;99.90
23827;DHT22;12094;50.822;4.376;2023-03-01T08:13:43;1.80;99.90
23827;DHT22;12094;50.822;4.376;2023-03-01T08:16:12;1.80;99.90
23827;DHT22;12094;50.822;4.376;2023-03-01T08:18:42;1.80;99.90
23827;DHT22;12094;50.822;4.376;2023-03-01T08:21:13;1.80;99.90
23827;DHT22;12094;50.822;4.376;2023-03-01T08:23:41;1.80;99.90
23827;DHT22;12094;50.822;4.376;2023-03-01T08:26:18;1.80;99.90
23827;DHT22;12094;50.822;4.376;2023-03-01T08:28:49;1.90;99.90
23827;DHT22;12094;50.822;4.376;2023-03-01T08:31:24;1.90;99.90
23827;DHT22;12094;50.822;4.376;2023-03-01T08:33:59;2.00;99.90
23827;DHT22;12094;50.822;4.376;2023-03-01T08:36:30;2.00;99.90
23827;DHT22;12094;50.822;4.376;2023-03-01T08:38:58;1.90;99.90
23827;DHT22;12094;50.822;4.376;2023-03-01T08:41:27;2.00;99.90
23827;DHT22;12094;50.822;4.376;2023-03-01T08:43:56;2.00;99.90
23827;DHT22;12094;50.822;4.376;2023-03-01T08:46:27;2.20;99.90
23827;DHT22;12094;50.822;4.376;2023-03-01T08:48:56;2.20;99.90
23827;DHT22;12094;50.822;4.376;2023-03-01T08:51:23;2.30;99.90
23827;DHT22;12094;50.822;4.376;2023-03-01T08:53:55;2.40;99.90
23827;DHT22;12094;50.822;4.376;2023-03-01T08:56:22;2.40;99.90
23827;DHT22;12094;50.822;4.376;2023-03-01T08:58:55;2.50;99.90
23827;DHT22;12094;50.822;4.376;2023-03-01T09:01:31;2.60;99.90
23827;DHT22;12094;50.822;4.376;2023-03-01T09:04:04;2.70;99.90
23827;DHT22;12094;50.822;4.376;2023-03-01T09:06:52;2.70;99.90
23827;DHT22;12094;50.822;4.376;2023-03-01T09:09:19;2.70;99.90
23827;DHT22;12094;50.822;4.376;2023-03-01T09:20:41;3.10;99.90
23827;DHT22;12094;50.822;4.376;2023-03-01T09:23:09;3.20;99.90
23827;DHT22;12094;50.822;4.376;2023-03-01T09:25:39;3.40;99.90
23827;DHT22;12094;50.822;4.376;2023-03-01T09:28:09;3.40;99.90
23827;DHT22;12094;50.822;4.376;2023-03-01T09:31:00;3.50;99.90
23827;DHT22;12094;50.822;4.376;2023-03-01T09:33:32;3.40;99.90
23827;DHT22;12094;50.822;4.376;2023-03-01T09:36:03;3.60;99.90
23827;DHT22;12094;50.822;4.376;2023-03-01T09:38:31;3.60;99.90
23827;DHT22;12094;50.822;4.376;2023-03-01T09:41:00;3.50;99.90
23827;DHT22;12094;50.822;4.376;2023-03-01T09:43:47;3.70;99.90
23827;DHT22;12094;50.822;4.376;2023-03-01T09:46:15;3.80;99.90
23827;DHT22;12094;50.822;4.376;2023-03-01T09:48:52;3.70;99.90
23827;DHT22;12094;50.822;4.376;2023-03-01T09:51:29;3.70;99.90
23827;DHT22;12094;50.822;4.376;2023-03-01T09:54:04;3.80;99.90
23827;DHT22;12094;50.822;4.376;2023-03-01T09:59:53;3.90;99.90
23827;DHT22;12094;50.822;4.376;2023-03-01T10:02:52;3.90;99.90
23827;DHT22;12094;50.822;4.376;2023-03-01T10:05:55;3.90;99.90
23827;DHT22;12094;50.822;4.376;2023-03-01T10:11:04;4.00;99.90
23827;DHT22;12094;50.822;4.376;2023-03-01T10:13:46;4.10;99.90
23827;DHT22;12094;50.822;4.376;2023-03-01T10:16:27;4.20;99.90
23827;DHT22;12094;50.822;4.376;2023-03-01T10:19:03;4.10;99.90
23827;DHT22;12094;50.822;4.376;2023-03-01T10:21:48;4.20;99.90
23827;DHT22;12094;50.822;4.376;2023-03-01T10:24:19;4.30;99.90
23827;DHT22;12094;50.822;4.376;2023-03-01T10:26:59;4.20;99.90
23827;DHT22;12094;50.822;4.376;2023-03-01T10:33:04;4.50;99.90
23827;DHT22;12094;50.822;4.376;2023-03-01T10:35:40;4.50;99.90
23827;DHT22;12094;50.822;4.376;2023-03-01T10:38:12;4.60;99.90
23827;DHT22;12094;50.822;4.376;2023-03-01T10:43:44;4.70;99.90
23827;DHT22;12094;50.822;4.376;2023-03-01T10:46:42;4.60;99.90
23827;DHT22;12094;50.822;4.376;2023-03-01T10:49:22;4.80;99.90
23827;DHT22;12094;50.822;4.376;2023-03-01T10:51:53;4.90;99.90
23827;DHT22;12094;50.822;4.376;2023-03-01T10:54:51;5.00;99.90
23827;DHT22;12094;50.822;4.376;2023-03-01T10:57:40;5.00;99.90
23827;DHT22;12094;50.822;4.376;2023-03-01T11:03:38;5.40;99.90
23827;DHT22;12094;50.822;4.376;2023-03-01T11:06:20;5.90;99.90
23827;DHT22;12094;50.822;4.376;2023-03-01T11:08:57;6.70;99.90
23827;DHT22;12094;50.822;4.376;2023-03-01T11:11:55;7.50;99.90
23827;DHT22;12094;50.822;4.376;2023-03-01T11:14:30;8.30;99.90
23827;DHT22;12094;50.822;4.376;2023-03-01T11:17:24;8.90;99.90
23827;DHT22;12094;50.822;4.376;2023-03-01T11:27:44;9.30;99.90
23827;DHT22;12094;50.822;4.376;2023-03-01T11:30:35;9.90;99.90
23827;DHT22;12094;50.822;4.376;2023-03-01T11:36:05;10.90;98.00
23827;DHT22;12094;50.822;4.376;2023-03-01T11:38:53;11.10;96.60
23827;DHT22;12094;50.822;4.376;2023-03-01T11:41:30;11.50;95.50
23827;DHT22;12094;50.822;4.376;2023-03-01T11:47:28;11.20;95.70
23827;DHT22;12094;50.822;4.376;2023-03-01T12:43:27;14.10;79.10
23827;DHT22;12094;50.822;4.376;2023-03-01T12:46:25;14.30;77.40
23827;DHT22;12094;50.822;4.376;2023-03-01T12:49:13;14.10;76.70
23827;DHT22;12094;50.822;4.376;2023-03-01T12:51:56;14.60;75.10
23827;DHT22;12094;50.822;4.376;2023-03-01T12:54:31;14.50;73.80
23827;DHT22;12094;50.822;4.376;2023-03-01T12:57:26;13.90;73.00
23827;DHT22;12094;50.822;4.376;2023-03-01T13:00:28;13.50;75.40
23827;DHT22;12094;50.822;4.376;2023-03-01T13:15:27;14.30;74.20
23827;DHT22;12094;50.822;4.376;2023-03-01T13:20:53;14.40;71.70
23827;DHT22;12094;50.822;4.376;2023-03-01T13:23:26;13.80;72.50
23827;DHT22;12094;50.822;4.376;2023-03-01T13:28:38;13.60;73.10
23827;DHT22;12094;50.822;4.376;2023-03-01T13:34:06;13.60;72.00
23827;DHT22;12094;50.822;4.376;2023-03-01T13:39:13;12.20;74.60
23827;DHT22;12094;50.822;4.376;2023-03-01T13:41:55;11.20;76.50
23827;DHT22;12094;50.822;4.376;2023-03-01T13:47:12;10.00;81.10
23827;DHT22;12094;50.822;4.376;2023-03-01T13:52:42;9.30;82.50
23827;DHT22;12094;50.822;4.376;2023-03-01T13:55:45;9.10;83.90
23827;DHT22;12094;50.822;4.376;2023-03-01T13:58:33;8.80;84.60
23827;DHT22;12094;50.822;4.376;2023-03-01T14:01:42;8.50;86.20
23827;DHT22;12094;50.822;4.376;2023-03-01T14:07:21;8.10;86.90
23827;DHT22;12094;50.822;4.376;2023-03-01T14:10:03;8.10;88.20
23827;DHT22;12094;50.822;4.376;2023-03-01T14:13:00;8.00;89.70
23827;DHT22;12094;50.822;4.376;2023-03-01T14:25:26;8.10;88.50
23827;DHT22;12094;50.822;4.376;2023-03-01T14:28:24;8.10;87.90
23827;DHT22;12094;50.822;4.376;2023-03-01T14:31:42;8.10;87.50
23827;DHT22;12094;50.822;4.376;2023-03-01T14:34:29;7.90;88.20
23827;DHT22;12094;50.822;4.376;2023-03-01T14:37:27;8.00;89.40
23827;DHT22;12094;50.822;4.376;2023-03-01T14:40:32;7.90;90.10
23827;DHT22;12094;50.822;4.376;2023-03-01T14:43:11;8.00;90.30
23827;DHT22;12094;50.822;4.376;2023-03-01T14:45:55;8.00;90.20
23827;DHT22;12094;50.822;4.376;2023-03-01T14:48:30;8.00;90.30
23827;DHT22;12094;50.822;4.376;2023-03-01T14:51:04;8.00;90.00
23827;DHT22;12094;50.822;4.376;2023-03-01T14:53:48;8.00;90.10
23827;DHT22;12094;50.822;4.376;2023-03-01T14:56:19;8.00;90.40
23827;DHT22;12094;50.822;4.376;2023-03-01T14:58:58;7.90;90.60
23827;DHT22;12094;50.822;4.376;2023-03-01T15:01:42;7.90;90.90
23827;DHT22;12094;50.822;4.376;2023-03-01T15:04:19;8.00;90.80
23827;DHT22;12094;50.822;4.376;2023-03-01T15:06:55;8.00;90.80
23827;DHT22;12094;50.822;4.376;2023-03-01T15:09:35;8.00;90.80
23827;DHT22;12094;50.822;4.376;2023-03-01T15:14:59;8.00;90.50
23827;DHT22;12094;50.822;4.376;2023-03-01T15:17:43;8.00;90.40
23827;DHT22;12094;50.822;4.376;2023-03-01T15:20:27;8.00;90.50
23827;DHT22;12094;50.822;4.376;2023-03-01T15:23:25;8.00;90.70
23827;DHT22;12094;50.822;4.376;2023-03-01T15:31:36;8.00;91.50
23827;DHT22;12094;50.822;4.376;2023-03-01T15:34:31;8.00;91.50
23827;DHT22;12094;50.822;4.376;2023-03-01T15:40:30;8.00;91.50
23827;DHT22;12094;50.822;4.376;2023-03-01T15:43:52;7.90;91.70
23827;DHT22;12094;50.822;4.376;2023-03-01T15:46:34;7.90;91.60
23827;DHT22;12094;50.822;4.376;2023-03-01T15:49:40;7.80;91.70
23827;DHT22;12094;50.822;4.376;2023-03-01T15:52:40;7.90;91.70
23827;DHT22;12094;50.822;4.376;2023-03-01T15:55:31;7.90;91.90
23827;DHT22;12094;50.822;4.376;2023-03-01T15:58:00;8.00;91.90
23827;DHT22;12094;50.822;4.376;2023-03-01T16:00:29;8.00;91.60
23827;DHT22;12094;50.822;4.376;2023-03-01T16:02:59;8.00;91.30
23827;DHT22;12094;50.822;4.376;2023-03-01T16:05:32;8.00;91.50
23827;DHT22;12094;50.822;4.376;2023-03-01T16:08:21;8.00;91.40
23827;DHT22;12094;50.822;4.376;2023-03-01T16:10:53;8.00;91.60
23827;DHT22;12094;50.822;4.376;2023-03-01T16:13:26;7.80;91.80
23827;DHT22;12094;50.822;4.376;2023-03-01T16:26:43;7.90;91.70
23827;DHT22;12094;50.822;4.376;2023-03-01T16:29:12;7.70;91.00
23827;DHT22;12094;50.822;4.376;2023-03-01T16:31:55;7.60;91.10
23827;DHT22;12094;50.822;4.376;2023-03-01T16:37:59;7.70;91.50
23827;DHT22;12094;50.822;4.376;2023-03-01T16:40:53;7.70;91.90
23827;DHT22;12094;50.822;4.376;2023-03-01T16:43:45;7.70;92.00
23827;DHT22;12094;50.822;4.376;2023-03-01T16:46:24;7.70;92.00
23827;DHT22;12094;50.822;4.376;2023-03-01T16:49:14;7.60;92.20
23827;DHT22;12094;50.822;4.376;2023-03-01T16:51:54;7.50;92.40
23827;DHT22;12094;50.822;4.376;2023-03-01T16:54:43;7.60;92.40
23827;DHT22;12094;50.822;4.376;2023-03-01T16:57:12;7.50;92.40
23827;DHT22;12094;50.822;4.376;2023-03-01T16:59:54;7.50;92.40
23827;DHT22;12094;50.822;4.376;2023-03-01T17:02:32;7.50;92.20
23827;DHT22;12094;50.822;4.376;2023-03-01T17:05:19;7.50;92.50
23827;DHT22;12094;50.822;4.376;2023-03-01T17:08:10;7.40;92.70
23827;DHT22;12094;50.822;4.376;2023-03-01T17:10:53;7.50;92.70
23827;DHT22;12094;50.822;4.376;2023-03-01T17:13:40;7.30;93.10
23827;DHT22;12094;50.822;4.376;2023-03-01T17:16:21;7.30;93.60
23827;DHT22;12094;50.822;4.376;2023-03-01T17:19:08;7.40;93.50
23827;DHT22;12094;50.822;4.376;2023-03-01T17:21:36;7.40;93.50
23827;DHT22;12094;50.822;4.376;2023-03-01T17:24:38;7.30;93.50
23827;DHT22;12094;50.822;4.376;2023-03-01T17:27:48;7.30;93.80
23827;DHT22;12094;50.822;4.376;2023-03-01T17:30:27;7.30;93.90
23827;DHT22;12094;50.822;4.376;2023-03-01T17:33:13;7.10;94.30
23827;DHT22;12094;50.822;4.376;2023-03-01T17:35:47;7.10;94.90
23827;DHT22;12094;50.822;4.376;2023-03-01T17:38:20;7.00;95.20
23827;DHT22;12094;50.822;4.376;2023-03-01T17:40:59;6.90;95.50
23827;DHT22;12094;50.822;4.376;2023-03-01T17:43:33;7.00;95.60
23827;DHT22;12094;50.822;4.376;2023-03-01T17:46:09;7.00;95.60
23827;DHT22;12094;50.822;4.376;2023-03-01T17:49:04;7.00;95.80
23827;DHT22;12094;50.822;4.376;2023-03-01T17:51:37;6.90;95.90
23827;DHT22;12094;50.822;4.376;2023-03-01T17:54:19;7.00;95.80
23827;DHT22;12094;50.822;4.376;2023-03-01T17:57:04;6.90;96.00
23827;DHT22;12094;50.822;4.376;2023-03-01T17:59:48;6.70;96.20
23827;DHT22;12094;50.822;4.376;2023-03-01T18:02:15;6.70;96.60
23827;DHT22;12094;50.822;4.376;2023-03-01T18:04:43;6.70;96.60
23827;DHT22;12094;50.822;4.376;2023-03-01T18:07:11;6.70;96.70
23827;DHT22;12094;50.822;4.376;2023-03-01T18:09:40;6.70;96.80
23827;DHT22;12094;50.822;4.376;2023-03-01T18:12:16;6.70;96.60
23827;DHT22;12094;50.822;4.376;2023-03-01T18:15:27;6.70;96.70
23827;DHT22;12094;50.822;4.376;2023-03-01T18:18:38;6.70;96.80
23827;DHT22;12094;50.822;4.376;2023-03-01T18:21:10;6.60;96.80
23827;DHT22;12094;50.822;4.376;2023-03-01T18:24:06;6.60;96.90
23827;DHT22;12094;50.822;4.376;2023-03-01T18:27:45;6.50;97.10
23827;DHT22;12094;50.822;4.376;2023-03-01T18:31:33;6.40;97.20
23827;DHT22;12094;50.822;4.376;2023-03-01T18:35:01;6.40;97.50
23827;DHT22;12094;50.822;4.376;2023-03-01T18:37:33;6.30;97.60
23827;DHT22;12094;50.822;4.376;2023-03-01T18:40:02;6.30;97.70
23827;DHT22;12094;50.822;4.376;2023-03-01T18:42:30;6.40;97.80
23827;DHT22;12094;50.822;4.376;2023-03-01T18:44:58;6.40;97.80
23827;DHT22;12094;50.822;4.376;2023-03-01T18:47:25;6.30;97.80
23827;DHT22;12094;50.822;4.376;2023-03-01T18:49:53;6.30;97.90
23827;DHT22;12094;50.822;4.376;2023-03-01T18:52:21;6.20;98.10
23827;DHT22;12094;50.822;4.376;2023-03-01T18:54:51;6.10;98.40
23827;DHT22;12094;50.822;4.376;2023-03-01T18:57:19;6.00;98.50
23827;DHT22;12094;50.822;4.376;2023-03-01T18:59:47;6.10;98.60
23827;DHT22;12094;50.822;4.376;2023-03-01T19:02:15;6.10;98.60
23827;DHT22;12094;50.822;4.376;2023-03-01T19:04:49;6.10;98.70
23827;DHT22;12094;50.822;4.376;2023-03-01T19:07:16;6.10;98.70
23827;DHT22;12094;50.822;4.376;2023-03-01T19:09:43;6.00;98.60
23827;DHT22;12094;50.822;4.376;2023-03-01T19:12:12;6.10;98.70
23827;DHT22;12094;50.822;4.376;2023-03-01T19:14:39;6.00;98.80
23827;DHT22;12094;50.822;4.376;2023-03-01T19:17:06;6.10;98.70
23827;DHT22;12094;50.822;4.376;2023-03-01T19:19:33;6.20;98.60
23827;DHT22;12094;50.822;4.376;2023-03-01T19:22:02;6.10;98.70
23827;DHT22;12094;50.822;4.376;2023-03-01T19:24:32;6.00;98.90
23827;DHT22;12094;50.822;4.376;2023-03-01T19:27:00;5.90;98.90
23827;DHT22;12094;50.822;4.376;2023-03-01T19:29:27;6.00;99.00
23827;DHT22;12094;50.822;4.376;2023-03-01T19:31:54;5.90;99.00
23827;DHT22;12094;50.822;4.376;2023-03-01T19:34:21;5.90;99.00